Time;durP1;ratioP1;P1;durP2;ratioP2;P2;SDS_P1;SDS_P2;PMS_P1;PMS_P2;Temp;Humidity;BMP_temperature;BMP_pressure;BME280_temperature;BME280_humidity;BME280_pressure;Samples;Min_cycle;Max_cycle;Signal;HPM_P1;HPM_P2
2023/05/20 00:01:38;;;;;;;7.43;2.93;;;;;;;9.29;100.00;98784.19;4928309;29;20645;-64
2023/05/20 00:04:05;;;;;;;8.80;3.10;;;;;;;9.36;100.00;98789.69;4925251;29;20631;-64
2023/05/20 00:06:32;;;;;;;5.57;2.93;;;;;;;9.37;100.00;98793.94;4928470;29;20239;-64
2023/05/20 00:08:59;;;;;;;6.97;3.03;;;;;;;9.38;100.00;98795.56;4925896;29;20234;-64
2023/05/20 00:11:26;;;;;;;6.53;3.07;;;;;;;9.42;100.00;98786.53;4928502;29;20715;-64
2023/05/20 00:13:53;;;;;;;4.40;3.00;;;;;;;9.44;100.00;98782.00;4939820;28;20260;-64
2023/05/20 00:16:20;;;;;;;6.60;3.03;;;;;;;9.46;100.00;98774.88;4927882;29;20637;-64
2023/05/20 00:18:46;;;;;;;6.87;3.37;;;;;;;9.50;100.00;98768.41;4927873;29;20710;-64
2023/05/20 00:21:13;;;;;;;4.27;2.80;;;;;;;9.54;100.00;98776.75;4925194;29;20329;-64
2023/05/20 00:23:39;;;;;;;8.77;3.60;;;;;;;9.55;100.00;98770.59;4927708;29;20235;-64
2023/05/20 00:26:06;;;;;;;4.40;3.00;;;;;;;9.54;100.00;98776.75;4925737;29;20241;-64
2023/05/20 00:28:34;;;;;;;6.40;3.53;;;;;;;9.51;100.00;98767.44;4928589;29;20244;-64
2023/05/20 00:31:00;;;;;;;10.53;3.00;;;;;;;9.53;100.00;98769.91;4925168;28;20300;-64
2023/05/20 00:33:27;;;;;;;6.80;3.00;;;;;;;9.57;100.00;98773.88;4920159;29;20264;-64
2023/05/20 00:35:53;;;;;;;5.33;3.17;;;;;;;9.54;100.00;98771.53;4910727;28;20234;-64
2023/05/20 00:38:22;;;;;;;6.20;3.20;;;;;;;9.53;100.00;98770.75;4911238;29;20252;-64
2023/05/20 00:40:48;;;;;;;7.53;3.20;;;;;;;9.56;100.00;98762.59;4911161;29;20236;-64
2023/05/20 00:43:15;;;;;;;6.00;3.03;;;;;;;9.63;100.00;98768.09;4940029;28;20238;-64
2023/05/20 00:45:43;;;;;;;4.40;3.30;;;;;;;9.71;100.00;98767.38;4942763;28;20245;-64
2023/05/20 00:48:10;;;;;;;6.37;2.77;;;;;;;9.74;100.00;98765.31;4939252;28;20247;-64
2023/05/20 00:50:36;;;;;;;6.10;3.60;;;;;;;9.82;100.00;98766.41;4927191;29;20236;-64
2023/05/20 00:53:04;;;;;;;6.23;3.10;;;;;;;9.93;100.00;98765.38;4939228;29;20239;-64
2023/05/20 00:55:32;;;;;;;5.33;3.10;;;;;;;9.98;100.00;98757.97;4941377;29;20234;-64
2023/05/20 00:57:59;;;;;;;5.80;3.70;;;;;;;10.05;100.00;98764.25;4938584;29;20598;-64
2023/05/20 01:00:25;;;;;;;5.63;3.37;;;;;;;10.08;100.00;98763.97;4927814;29;20289;-64
2023/05/20 01:02:55;;;;;;;6.00;3.63;;;;;;;10.12;100.00;98767.09;4915263;29;20739;-64
2023/05/20 01:05:22;;;;;;;7.40;3.23;;;;;;;10.15;100.00;98764.19;4926870;29;20233;-64
2023/05/20 01:07:48;;;;;;;5.17;3.00;;;;;;;10.27;100.00;98762.22;4910450;29;20236;-64
2023/05/20 01:10:15;;;;;;;5.17;3.33;;;;;;;10.28;100.00;98767.28;4940070;28;20732;-64
2023/05/20 01:12:45;;;;;;;7.47;3.07;;;;;;;10.32;100.00;98766.03;4916971;29;20235;-64
2023/05/20 01:15:13;;;;;;;6.33;3.40;;;;;;;10.39;100.00;98760.22;4928589;29;20701;-64
2023/05/20 01:17:43;;;;;;;6.73;3.33;;;;;;;10.43;100.00;98764.22;4914498;29;20227;-64
2023/05/20 01:20:14;;;;;;;6.40;3.40;;;;;;;10.47;100.00;98760.34;4924877;28;20694;-64
2023/05/20 01:22:48;;;;;;;7.70;3.47;;;;;;;10.54;100.00;98750.97;4918893;29;20246;-64
2023/05/20 01:25:15;;;;;;;6.13;3.43;;;;;;;10.61;100.00;98753.78;4943504;28;20245;-64
2023/05/20 01:27:42;;;;;;;5.70;3.07;;;;;;;10.66;100.00;98758.59;4931289;29;20291;-64
2023/05/20 01:30:10;;;;;;;4.73;3.33;;;;;;;10.69;100.00;98756.47;4942623;28;23927;-64
2023/05/20 01:32:39;;;;;;;5.47;3.00;;;;;;;10.75;100.00;98750.66;4945716;29;20785;-64
2023/05/20 01:35:08;;;;;;;7.33;3.83;;;;;;;10.76;100.00;98748.91;4926188;28;20221;-64
2023/05/20 01:37:38;;;;;;;8.87;3.33;;;;;;;10.77;100.00;98755.75;4931100;29;20257;-64
2023/05/20 01:40:08;;;;;;;5.43;3.00;;;;;;;10.79;100.00;98756.44;4943185;28;20241;-64
2023/05/20 01:42:37;;;;;;;6.13;3.73;;;;;;;10.82;100.00;98753.53;4914213;29;20235;-64
2023/05/20 01:45:05;;;;;;;6.40;3.20;;;;;;;10.84;100.00;98756.81;4942699;28;20227;-64
2023/05/20 01:47:31;;;;;;;4.27;3.07;;;;;;;10.83;100.00;98749.09;4945613;28;20238;-64
2023/05/20 01:49:58;;;;;;;8.73;3.33;;;;;;;10.83;100.00;98749.09;4931433;28;20234;-64
2023/05/20 01:52:25;;;;;;;5.83;3.17;;;;;;;10.85;100.00;98745.38;4906484;29;20249;-64
2023/05/20 01:54:51;;;;;;;7.77;3.37;;;;;;;10.85;100.00;98745.38;4941459;28;20235;-64
2023/05/20 01:57:21;;;;;;;6.13;3.50;;;;;;;10.87;100.00;98747.84;4945479;29;20226;-64
2023/05/20 01:59:49;;;;;;;6.80;3.10;;;;;;;10.87;100.00;98743.44;4904206;28;20230;-64
2023/05/20 02:02:16;;;;;;;4.57;3.00;;;;;;;10.96;100.00;98741.72;4945056;29;20238;-64
2023/05/20 02:04:46;;;;;;;6.83;3.20;;;;;;;11.04;98.23;98730.53;4928928;29;20233;-64
2023/05/20 02:07:14;;;;;;;6.20;3.13;;;;;;;11.08;97.85;98729.25;4917224;29;20630;-64
2023/05/20 02:09:41;;;;;;;6.03;3.77;;;;;;;11.16;99.55;98729.28;4919109;29;20566;-64
2023/05/20 02:12:08;;;;;;;4.13;3.10;;;;;;;11.14;100.00;98727.81;4941953;29;20242;-64
2023/05/20 02:14:36;;;;;;;4.63;3.20;;;;;;;11.14;100.00;98718.19;4930365;29;20712;-64
2023/05/20 02:17:03;;;;;;;5.47;3.70;;;;;;;11.10;99.96;98711.66;4902352;29;20230;-64
2023/05/20 02:19:34;;;;;;;6.10;3.67;;;;;;;11.07;100.00;98706.72;4945068;29;20246;-64
2023/05/20 02:22:01;;;;;;;5.73;3.83;;;;;;;11.04;100.00;98705.22;4907048;29;20233;-64
2023/05/20 02:24:53;;;;;;;6.13;3.60;;;;;;;11.07;99.48;98706.72;4926474;28;20316;-64
2023/05/20 02:27:19;;;;;;;7.30;3.43;;;;;;;11.06;99.41;98703.28;4944646;28;20228;-64
2023/05/20 02:29:47;;;;;;;4.90;3.27;;;;;;;11.15;98.21;98698.13;4917100;29;20245;-64
2023/05/20 02:32:19;;;;;;;8.60;3.60;;;;;;;11.23;97.29;98706.00;4926279;29;20716;-64
2023/05/20 02:34:46;;;;;;;9.10;3.90;;;;;;;11.30;97.41;98696.59;4944385;29;20310;-64
2023/05/20 02:37:13;;;;;;;5.67;3.97;;;;;;;11.34;97.18;98691.84;4927540;29;20244;-64
2023/05/20 02:39:39;;;;;;;5.07;3.70;;;;;;;11.35;96.91;98701.34;4944455;29;20242;-64
2023/05/20 02:42:06;;;;;;;5.27;3.90;;;;;;;11.36;96.48;98692.53;4908946;29;20322;-64
2023/05/20 02:44:34;;;;;;;5.63;3.70;;;;;;;11.44;95.75;98697.00;4911600;29;20241;-64
2023/05/20 02:47:02;;;;;;;7.73;3.87;;;;;;;11.44;96.12;98689.16;4911495;29;20305;-64
2023/05/20 02:49:34;;;;;;;5.47;3.37;;;;;;;11.50;96.13;98685.91;4928754;29;20241;-64
2023/05/20 02:52:03;;;;;;;7.80;4.27;;;;;;;11.52;96.86;98676.13;4928071;28;20233;-64
2023/05/20 02:54:34;;;;;;;9.03;4.37;;;;;;;11.60;95.25;98678.78;4928521;28;20246;-64
2023/05/20 02:57:02;;;;;;;6.67;3.90;;;;;;;11.64;95.57;98684.50;4904856;29;20309;-64
2023/05/20 02:59:34;;;;;;;5.57;3.90;;;;;;;11.76;94.06;98685.03;4929811;29;20246;-64
2023/05/20 03:02:02;;;;;;;6.93;3.90;;;;;;;11.76;94.33;98679.81;4941096;28;20315;-64
2023/05/20 03:04:37;;;;;;;8.57;3.90;;;;;;;11.77;94.38;98681.44;4942891;29;20233;-64
2023/05/20 03:07:04;;;;;;;7.17;4.13;;;;;;;11.78;94.56;98685.69;4941363;28;20265;-64
2023/05/20 03:09:34;;;;;;;5.70;3.30;;;;;;;11.87;93.14;98686.56;4908379;29;20328;-64
2023/05/20 03:12:01;;;;;;;4.47;3.60;;;;;;;12.18;91.51;98689.47;4911392;29;20227;-64
2023/05/20 03:14:54;;;;;;;5.93;3.40;;;;;;;12.54;88.36;98683.16;4925871;28;20246;-64
2023/05/20 03:17:22;;;;;;;6.47;3.47;;;;;;;12.49;88.80;98690.69;4944082;28;20231;-64
2023/05/20 03:19:48;;;;;;;4.53;3.00;;;;;;;12.46;88.19;98688.38;4942879;28;20687;-64
2023/05/20 03:22:15;;;;;;;5.83;3.37;;;;;;;12.29;91.35;98688.34;4941601;29;20238;-64
2023/05/20 03:24:43;;;;;;;5.17;3.23;;;;;;;12.21;92.24;98686.53;4912031;29;20226;-64
2023/05/20 03:27:12;;;;;;;4.10;3.50;;;;;;;12.24;91.54;98683.59;4909862;29;20290;-64
2023/05/20 03:29:39;;;;;;;6.57;3.23;;;;;;;12.23;91.13;98683.75;4930368;29;20230;-64
2023/05/20 03:32:08;;;;;;;3.70;3.10;;;;;;;12.19;91.77;98682.47;5132904;23;20227;-64
2023/05/20 03:34:37;;;;;;;4.47;3.47;;;;;;;12.10;92.31;98681.59;4927440;29;20383;-65
2023/05/20 03:37:03;;;;;;;4.20;3.37;;;;;;;12.16;92.69;98691.44;4923954;29;20286;-65
2023/05/20 03:39:34;;;;;;;4.63;3.53;;;;;;;12.09;92.72;98690.44;4911856;29;20231;-64
2023/05/20 03:42:01;;;;;;;7.50;3.87;;;;;;;12.07;93.14;98693.22;4924967;28;20245;-64
2023/05/20 03:44:34;;;;;;;5.73;3.80;;;;;;;12.10;92.59;98681.59;4910891;29;20285;-64
2023/05/20 03:47:02;;;;;;;7.10;4.30;;;;;;;12.10;92.35;98692.06;4909287;29;20594;-64
2023/05/20 03:49:35;;;;;;;4.03;3.17;;;;;;;12.22;90.31;98687.34;4911048;29;20235;-64
2023/05/20 03:52:03;;;;;;;6.33;3.60;;;;;;;12.26;90.26;98688.66;4908652;29;20235;-64
2023/05/20 03:54:35;;;;;;;5.60;3.60;;;;;;;12.28;89.47;98686.72;4901583;29;20232;-64
2023/05/20 03:57:02;;;;;;;6.73;3.80;;;;;;;12.37;88.86;98690.97;4907401;28;21144;-64
2023/05/20 03:59:35;;;;;;;5.00;3.90;;;;;;;12.40;88.54;98692.47;4908673;29;20236;-64
2023/05/20 04:02:02;;;;;;;6.67;4.00;;;;;;;12.47;88.24;98695.25;4926036;28;20242;-64
2023/05/20 04:04:36;;;;;;;5.83;3.50;;;;;;;12.55;87.45;98687.41;4910378;29;20225;-64
2023/05/20 04:07:03;;;;;;;6.23;3.73;;;;;;;12.57;87.81;98693.31;4925823;28;20728;-64
2023/05/20 04:09:34;;;;;;;5.00;3.30;;;;;;;12.64;87.61;98693.50;4911420;29;20239;-64
2023/05/20 04:12:04;;;;;;;7.37;3.80;;;;;;;12.64;87.28;98703.97;4898328;29;20622;-64
2023/05/20 04:14:34;;;;;;;5.40;3.63;;;;;;;12.70;87.07;98700.69;4900396;29;20269;-64
2023/05/20 04:17:02;;;;;;;7.07;4.10;;;;;;;12.72;86.67;98705.75;4908408;29;20222;-64
2023/05/20 04:19:37;;;;;;;8.67;4.10;;;;;;;12.72;86.65;98698.72;4901048;29;20235;-64
2023/05/20 04:22:09;;;;;;;5.20;4.00;;;;;;;12.78;86.29;98703.31;4895131;29;20291;-65
2023/05/20 04:24:37;;;;;;;7.13;4.07;;;;;;;12.82;86.20;98702.00;4908114;29;20729;-64
2023/05/20 04:27:04;;;;;;;6.33;4.20;;;;;;;12.79;86.29;98694.47;4925611;28;20229;-64
2023/05/20 04:29:34;;;;;;;4.53;3.70;;;;;;;12.83;86.25;98693.16;4901180;29;20737;-64
2023/05/20 04:32:02;;;;;;;5.17;3.40;;;;;;;12.88;86.00;98687.44;4921691;28;20283;-64
2023/05/20 04:34:36;;;;;;;5.80;4.37;;;;;;;12.84;85.92;98688.75;4927244;29;20232;-64
2023/05/20 04:37:03;;;;;;;5.63;3.83;;;;;;;12.87;85.89;98685.81;4899512;29;20243;-64
2023/05/20 04:39:35;;;;;;;5.10;3.77;;;;;;;12.76;87.21;98686.94;4928129;28;20632;-64
2023/05/20 04:42:02;;;;;;;6.27;4.83;;;;;;;12.69;87.33;98680.72;4906019;29;20263;-64
2023/05/20 04:44:34;;;;;;;5.97;3.90;;;;;;;12.61;87.72;98678.91;4899455;29;20332;-65
2023/05/20 04:47:01;;;;;;;5.50;4.27;;;;;;;12.58;88.23;98675.81;4907423;29;20239;-64
2023/05/20 04:49:56;;;;;;;10.80;4.07;;;;;;;12.56;87.94;98681.19;4924691;29;20229;-64
2023/05/20 04:52:23;;;;;;;7.93;4.33;;;;;;;12.45;89.40;98679.72;4903311;29;20243;-64
2023/05/20 04:54:49;;;;;;;6.90;4.40;;;;;;;12.40;90.03;98680.19;4899160;29;20274;-64
2023/05/20 04:57:19;;;;;;;7.33;4.47;;;;;;;12.37;89.68;98680.50;4910363;29;20231;-64
2023/05/20 04:59:46;;;;;;;6.00;4.10;;;;;;;12.41;89.85;98673.16;4902634;29;20302;-64
2023/05/20 05:02:13;;;;;;;7.17;4.13;;;;;;;12.47;89.66;98676.94;4907881;29;20241;-64
2023/05/20 05:04:40;;;;;;;4.73;3.73;;;;;;;12.45;89.52;98684.13;4910482;29;20235;-64
2023/05/20 05:07:07;;;;;;;7.00;4.30;;;;;;;12.51;88.96;98675.63;4903083;29;20231;-64
2023/05/20 05:09:34;;;;;;;13.37;4.07;;;;;;;12.51;89.26;98675.63;4927615;29;20668;-64
2023/05/20 05:12:01;;;;;;;6.20;5.60;;;;;;;12.50;89.53;98676.59;4907833;29;20330;-64
2023/05/20 05:14:34;;;;;;;7.60;4.13;;;;;;;12.59;88.89;98674.84;4905462;29;20245;-64
2023/05/20 05:17:01;;;;;;;6.50;4.03;;;;;;;12.63;88.74;98674.31;4907845;29;20710;-64
2023/05/20 05:19:52;;;;;;;6.47;4.00;;;;;;;12.68;88.67;98664.19;4924558;29;20310;-64
2023/05/20 05:22:20;;;;;;;5.50;3.80;;;;;;;12.80;88.64;98663.84;4910241;29;20223;-64
2023/05/20 05:24:47;;;;;;;5.33;4.30;;;;;;;12.93;87.56;98660.72;4910362;29;20588;-64
2023/05/20 05:27:14;;;;;;;6.33;4.60;;;;;;;12.95;87.16;98661.38;4913489;29;20303;-64
2023/05/20 05:29:40;;;;;;;6.43;4.63;;;;;;;12.95;87.06;98662.22;4927345;29;20571;-64
2023/05/20 05:32:07;;;;;;;7.00;4.40;;;;;;;12.92;88.03;98662.56;4907190;29;20297;-64
2023/05/20 05:34:34;;;;;;;5.73;4.53;;;;;;;12.88;88.06;98656.00;4924793;29;20227;-64
2023/05/20 05:37:01;;;;;;;8.13;5.27;;;;;;;12.90;87.88;98658.44;4906854;29;20237;-64
2023/05/20 05:39:53;;;;;;;6.90;4.10;;;;;;;12.95;87.82;98661.38;4924149;29;20245;-64
2023/05/20 05:42:20;;;;;;;9.27;4.67;;;;;;;12.91;88.08;98658.28;4911787;29;20248;-64
2023/05/20 05:44:48;;;;;;;6.60;4.40;;;;;;;12.94;88.53;98665.00;4910118;29;20238;-64
2023/05/20 05:47:15;;;;;;;6.13;4.10;;;;;;;13.02;88.03;98664.97;4910257;29;20231;-64
2023/05/20 05:49:42;;;;;;;5.73;4.40;;;;;;;13.08;88.04;98666.94;4902687;29;20245;-64
2023/05/20 05:52:09;;;;;;;5.87;4.57;;;;;;;13.10;88.07;98670.22;4897829;29;20232;-64
2023/05/20 05:54:36;;;;;;;6.77;4.13;;;;;;;13.20;87.76;98656.94;4916224;29;20707;-64
2023/05/20 05:57:04;;;;;;;6.67;4.33;;;;;;;13.26;87.68;98663.31;4905777;29;20247;-64
2023/05/20 05:59:35;;;;;;;7.47;4.53;;;;;;;13.18;87.89;98668.56;4909436;29;20242;-64
2023/05/20 06:02:02;;;;;;;6.33;3.70;;;;;;;13.40;87.95;98661.78;4902958;29;20721;-64
2023/05/20 06:04:34;;;;;;;6.50;4.03;;;;;;;13.49;87.49;98654.78;4910862;29;20302;-64
2023/05/20 06:07:01;;;;;;;5.00;4.10;;;;;;;13.63;86.51;98643.56;4901384;29;20242;-64
2023/05/20 06:09:52;;;;;;;5.97;4.47;;;;;;;13.75;86.28;98646.63;4927498;29;20851;-65
2023/05/20 06:12:21;;;;;;;7.50;4.17;;;;;;;13.87;85.20;98655.75;4903543;29;20258;-65
2023/05/20 06:14:47;;;;;;;6.70;4.20;;;;;;;13.89;85.85;98650.31;4906393;29;20242;-65
2023/05/20 06:17:14;;;;;;;7.30;4.00;;;;;;;14.06;84.41;98650.25;4926461;28;20290;-65
2023/05/20 06:19:42;;;;;;;7.67;4.63;;;;;;;14.11;83.58;98648.75;4913328;29;20232;-65
2023/05/20 06:22:08;;;;;;;5.33;4.00;;;;;;;14.29;83.34;98653.72;4900624;29;20728;-65
2023/05/20 06:24:35;;;;;;;6.13;4.30;;;;;;;14.32;82.81;98645.50;4912643;29;20291;-65
2023/05/20 06:27:02;;;;;;;5.60;4.30;;;;;;;14.47;82.67;98653.41;4903214;29;20231;-65
2023/05/20 06:29:35;;;;;;;8.37;4.07;;;;;;;14.65;81.99;98657.56;4912900;29;20224;-65
2023/05/20 06:32:02;;;;;;;5.40;4.43;;;;;;;14.88;82.10;98649.66;4918229;28;20239;-65
2023/05/20 06:34:35;;;;;;;7.37;4.30;;;;;;;15.00;81.86;98651.88;4912391;29;20224;-65
2023/05/20 06:37:01;;;;;;;6.40;4.30;;;;;;;15.17;79.63;98650.72;4904529;29;20271;-65
2023/05/20 06:39:34;;;;;;;6.70;4.03;;;;;;;14.97;80.63;98646.97;4911238;29;20245;-65
2023/05/20 06:42:01;;;;;;;4.57;3.60;;;;;;;15.11;78.55;98648.00;4907737;29;20261;-65
2023/05/20 06:44:37;;;;;;;4.53;3.90;;;;;;;15.19;79.28;98646.09;4912190;29;20701;-65
2023/05/20 06:47:24;;;;;;;5.77;4.40;;;;;;;15.24;78.40;98655.25;4926474;28;20242;-65
2023/05/20 06:49:52;;;;;;;5.87;4.13;;;;;;;15.17;79.05;98658.59;4915365;29;20228;-65
2023/05/20 06:52:19;;;;;;;6.57;4.07;;;;;;;15.00;79.77;98655.31;4927962;28;20242;-65
2023/05/20 06:54:46;;;;;;;6.57;4.20;;;;;;;14.82;80.45;98655.66;4912472;29;20225;-65
2023/05/20 06:57:13;;;;;;;7.70;4.40;;;;;;;14.88;79.69;98654.91;4911302;28;20620;-65
2023/05/20 06:59:42;;;;;;;7.10;4.20;;;;;;;14.78;80.89;98658.81;4912780;29;20600;-65
2023/05/20 07:02:08;;;;;;;8.03;4.83;;;;;;;15.06;80.28;98653.78;4909609;29;20289;-65
2023/05/20 07:04:35;;;;;;;6.27;4.60;;;;;;;14.96;79.67;98645.34;4903358;29;20284;-65
2023/05/20 07:07:02;;;;;;;7.80;5.13;;;;;;;15.02;79.66;98652.50;4904293;29;20358;-65
2023/05/20 07:09:34;;;;;;;6.70;5.10;;;;;;;15.05;79.07;98647.72;4912712;29;20597;-65
2023/05/20 07:12:01;;;;;;;6.40;4.70;;;;;;;15.05;79.10;98646.88;4911999;28;20229;-65
2023/05/20 07:14:54;;;;;;;7.93;4.87;;;;;;;15.25;78.92;98638.47;4926828;29;20241;-65
2023/05/20 07:17:21;;;;;;;6.20;4.40;;;;;;;15.13;79.46;98646.00;4902145;29;20228;-65
2023/05/20 07:19:51;;;;;;;6.27;4.70;;;;;;;15.42;77.96;98639.94;4924479;29;20311;-65
2023/05/20 07:22:18;;;;;;;7.67;5.10;;;;;;;15.11;79.63;98638.28;4911843;29;20617;-65
2023/05/20 07:25:11;;;;;;;8.70;4.73;;;;;;;15.32;79.04;98634.13;4924234;29;20271;-65
2023/05/20 07:27:38;;;;;;;6.97;4.63;;;;;;;15.41;77.89;98625.16;4911293;29;20237;-65
2023/05/20 07:30:07;;;;;;;7.97;4.47;;;;;;;15.54;77.59;98627.13;4926290;29;20246;-65
2023/05/20 07:32:40;;;;;;;6.57;4.90;;;;;;;15.48;77.83;98631.31;4903485;29;20237;-65
2023/05/20 07:35:07;;;;;;;7.50;4.47;;;;;;;15.61;77.24;98628.03;4908772;29;20323;-65
2023/05/20 07:37:34;;;;;;;6.47;5.30;;;;;;;15.82;76.54;98625.66;4916599;29;20243;-65
2023/05/20 07:40:04;;;;;;;7.87;4.47;;;;;;;15.80;77.45;98617.94;4924164;29;20250;-65
2023/05/20 07:42:30;;;;;;;6.33;4.97;;;;;;;15.84;76.95;98616.56;4911884;29;20657;-65
2023/05/20 07:44:59;;;;;;;5.53;4.90;;;;;;;16.01;75.58;98609.28;4900223;29;20242;-65
2023/05/20 07:47:28;;;;;;;5.70;4.93;;;;;;;16.05;74.72;98605.28;4911562;29;20233;-63
2023/05/20 07:49:54;;;;;;;5.63;4.97;;;;;;;16.23;74.74;98607.50;4904478;29;20609;-63
2023/05/20 07:52:21;;;;;;;5.70;4.87;;;;;;;16.21;74.71;98604.22;4926376;28;20647;-63
2023/05/20 07:54:48;;;;;;;5.90;4.37;;;;;;;16.34;73.35;98589.56;4928614;29;20244;-63
2023/05/20 07:57:14;;;;;;;8.23;4.90;;;;;;;16.11;75.79;98603.72;4899903;29;20254;-63
2023/05/20 07:59:41;;;;;;;5.77;4.80;;;;;;;16.43;74.76;98592.88;4911822;29;20239;-63
2023/05/20 08:02:08;;;;;;;7.10;5.20;;;;;;;16.56;73.90;98607.97;4925502;28;20600;-63
2023/05/20 08:04:37;;;;;;;5.80;5.03;;;;;;;16.51;73.28;98603.28;4904436;29;20278;-63
2023/05/20 08:07:04;;;;;;;6.43;4.53;;;;;;;16.38;73.20;98591.63;4886247;29;20237;-64
2023/05/20 08:09:42;;;;;;;6.03;4.83;;;;;;;16.65;73.97;98588.38;4917352;29;20292;-64
2023/05/20 08:12:08;;;;;;;5.67;4.33;;;;;;;16.65;73.07;98585.72;4909621;29;20232;-64
2023/05/20 08:14:35;;;;;;;7.53;5.23;;;;;;;16.74;72.43;98583.78;4911282;29;20236;-64
2023/05/20 08:17:03;;;;;;;8.10;4.80;;;;;;;16.94;72.93;98587.38;4908508;29;20261;-64
2023/05/20 08:19:34;;;;;;;5.60;4.70;;;;;;;16.99;71.60;98591.25;4910426;29;20324;-64
2023/05/20 08:22:02;;;;;;;5.23;4.60;;;;;;;16.95;70.90;98583.72;4897377;29;20296;-65
2023/05/20 08:24:35;;;;;;;6.73;5.00;;;;;;;17.14;69.36;98584.06;4924385;29;20244;-64
2023/05/20 08:27:01;;;;;;;7.27;5.20;;;;;;;16.93;70.52;98587.56;4908342;29;20258;-64
2023/05/20 08:29:35;;;;;;;7.97;5.07;;;;;;;17.02;70.59;98585.59;4926391;29;20237;-64
2023/05/20 08:32:01;;;;;;;7.87;5.03;;;;;;;16.82;70.85;98587.09;4900627;29;20323;-64
2023/05/20 08:34:35;;;;;;;9.27;5.43;;;;;;;16.79;71.86;98581.41;4901262;29;20243;-64
2023/05/20 08:37:03;;;;;;;8.80;5.67;;;;;;;16.88;71.68;98580.25;4900863;29;20891;-64
2023/05/20 08:39:34;;;;;;;5.67;4.83;;;;;;;16.96;70.60;98568.72;4904269;29;20328;-64
2023/05/20 08:42:01;;;;;;;8.63;5.27;;;;;;;17.11;71.08;98574.72;4907730;29;20235;-64
2023/05/20 08:44:35;;;;;;;7.67;5.23;;;;;;;17.11;69.90;98577.34;4926436;29;20230;-64
2023/05/20 08:47:03;;;;;;;8.87;5.80;;;;;;;16.98;70.54;98574.63;4924293;28;20726;-64
2023/05/20 08:49:35;;;;;;;6.97;4.73;;;;;;;17.06;69.39;98571.84;4926088;29;20775;-64
2023/05/20 08:52:03;;;;;;;8.83;5.63;;;;;;;17.29;69.55;98569.94;4924736;28;20252;-64
2023/05/20 08:54:44;;;;;;;9.43;5.47;;;;;;;17.33;66.94;98571.16;4927526;29;20324;-64
2023/05/20 08:57:12;;;;;;;7.37;5.30;;;;;;;17.26;68.64;98582.50;4924026;28;20236;-64
2023/05/20 08:59:41;;;;;;;6.30;4.63;;;;;;;17.31;68.76;98576.66;4927547;29;20234;-64
2023/05/20 09:02:09;;;;;;;8.40;5.10;;;;;;;17.58;69.10;98573.31;4924839;28;20240;-64
2023/05/20 09:04:35;;;;;;;6.70;4.80;;;;;;;17.43;68.15;98574.25;4927331;29;20304;-64
2023/05/20 09:07:04;;;;;;;9.10;5.37;;;;;;;17.65;68.35;98571.50;4924923;28;20731;-64
2023/05/20 09:09:35;;;;;;;7.83;5.00;;;;;;;17.48;67.48;98587.69;4927635;29;20243;-64
2023/05/20 09:12:03;;;;;;;8.30;5.20;;;;;;;17.26;67.73;98574.59;4924941;28;20240;-64
2023/05/20 09:14:34;;;;;;;8.00;5.50;;;;;;;17.52;66.79;98581.00;4927406;29;20690;-64
2023/05/20 09:17:01;;;;;;;7.23;5.47;;;;;;;17.88;67.93;98580.91;4924735;28;20222;-64
2023/05/20 09:19:33;;;;;;;7.40;5.20;;;;;;;17.83;66.68;98576.22;4927483;29;20256;-64
2023/05/20 09:22:00;;;;;;;5.87;5.10;;;;;;;18.02;66.41;98574.66;4924807;28;20246;-64
2023/05/20 09:24:28;;;;;;;8.17;4.87;;;;;;;17.83;65.60;98579.69;4927244;29;20285;-64
2023/05/20 09:26:55;;;;;;;6.20;5.03;;;;;;;17.99;65.72;98567.13;4897276;29;20238;-64
2023/05/20 09:29:21;;;;;;;8.03;5.23;;;;;;;17.89;65.21;98564.84;4926702;29;20234;-64
2023/05/20 09:31:48;;;;;;;8.43;5.67;;;;;;;18.15;65.06;98566.75;4927339;28;20242;-64
2023/05/20 09:34:16;;;;;;;5.27;4.40;;;;;;;18.32;63.96;98568.19;4924642;29;20239;-64
2023/05/20 09:36:43;;;;;;;10.00;5.20;;;;;;;18.63;62.87;98569.41;4930235;28;20230;-64
2023/05/20 09:39:14;;;;;;;10.27;4.93;;;;;;;18.55;63.38;98562.50;4928638;29;31784;-64
2023/05/20 09:41:53;;;;;;;8.47;4.83;;;;;;;18.58;63.14;98557.59;4931037;28;20590;-64
2023/05/20 09:44:21;;;;;;;8.57;4.97;;;;;;;18.92;60.71;98564.69;4928223;29;20313;-64
2023/05/20 09:46:49;;;;;;;8.60;4.60;;;;;;;19.23;60.06;98557.94;4931091;28;20603;-64
2023/05/20 09:49:16;;;;;;;7.77;4.43;;;;;;;18.93;60.27;98561.84;4928568;29;20238;-64
2023/05/20 09:51:44;;;;;;;5.20;4.30;;;;;;;19.16;60.64;98566.69;4930660;28;20634;-64
2023/05/20 09:54:13;;;;;;;6.07;4.07;;;;;;;18.98;59.27;98554.13;4927803;29;20831;-64
2023/05/20 09:56:41;;;;;;;6.03;4.43;;;;;;;19.26;58.57;98552.22;4930907;28;20292;-64
2023/05/20 09:59:11;;;;;;;6.83;4.23;;;;;;;19.16;59.11;98550.81;4928210;29;20819;-64
2023/05/20 10:01:37;;;;;;;5.17;4.10;;;;;;;19.62;57.99;98550.81;4930538;28;20301;-64
2023/05/20 10:04:07;;;;;;;7.47;4.00;;;;;;;19.59;56.28;98549.41;4927970;29;20292;-64
2023/05/20 10:06:56;;;;;;;6.43;4.00;;;;;;;19.87;56.78;98555.38;4930497;28;20220;-64
2023/05/20 10:09:43;;;;;;;4.90;4.37;;;;;;;19.68;57.05;98554.47;4928491;29;20243;-64
2023/05/20 10:12:20;;;;;;;8.40;4.27;;;;;;;20.08;56.22;98553.44;4926775;28;20290;-64
2023/05/20 10:14:59;;;;;;;5.63;3.80;;;;;;;19.70;57.37;98547.94;4928705;29;20574;-64
2023/05/20 10:17:31;;;;;;;10.57;3.97;;;;;;;19.99;55.69;98543.09;4927131;28;20237;-64
2023/05/20 10:19:59;;;;;;;6.70;4.17;;;;;;;20.12;55.12;98542.22;4928025;29;20599;-64
2023/05/20 10:22:30;;;;;;;4.30;3.83;;;;;;;20.14;55.66;98545.44;4930641;28;20806;-64
2023/05/20 10:25:05;;;;;;;4.90;4.03;;;;;;;19.70;55.50;98545.28;4927359;29;20847;-64
2023/05/20 10:27:43;;;;;;;6.23;4.20;;;;;;;19.98;55.33;98541.47;4930147;28;20234;-64
2023/05/20 10:30:17;;;;;;;7.20;4.17;;;;;;;19.45;56.12;98540.75;4927467;29;20740;-64
2023/05/20 10:32:52;;;;;;;5.10;4.10;;;;;;;19.57;55.21;98535.59;4929947;28;20235;-64
2023/05/20 10:35:25;;;;;;;4.83;4.00;;;;;;;19.27;55.22;98536.13;4927815;29;20232;-64
2023/05/20 10:37:52;;;;;;;6.77;4.40;;;;;;;19.55;55.91;98526.25;4927513;29;20236;-64
2023/05/20 10:40:21;;;;;;;6.40;4.00;;;;;;;19.52;57.41;98530.09;4930520;29;20728;-64
2023/05/20 10:42:49;;;;;;;6.03;4.17;;;;;;;19.27;56.60;98522.88;4929994;29;20236;-64
2023/05/20 10:45:27;;;;;;;8.20;3.77;;;;;;;19.25;58.04;98524.94;4927478;29;20244;-64
2023/05/20 10:47:55;;;;;;;6.40;4.57;;;;;;;19.17;58.12;98517.22;4926665;29;20239;-64
2023/05/20 10:50:28;;;;;;;4.53;3.77;;;;;;;19.14;57.68;98517.63;4929290;29;20238;-64
2023/05/20 10:53:02;;;;;;;8.10;4.33;;;;;;;18.94;58.38;98522.97;4926975;29;20232;-64
2023/05/20 10:55:36;;;;;;;7.57;4.47;;;;;;;19.17;57.42;98517.22;4929876;29;20240;-64
2023/05/20 10:58:03;;;;;;;6.27;3.97;;;;;;;19.25;58.32;98511.69;4926599;29;20220;-64
2023/05/20 11:00:30;;;;;;;5.83;4.57;;;;;;;19.20;57.88;98511.50;4929372;29;20258;-64
2023/05/20 11:02:57;;;;;;;5.30;4.30;;;;;;;19.39;57.72;98509.00;4926015;29;20224;-64
2023/05/20 11:05:26;;;;;;;5.80;4.37;;;;;;;19.47;57.85;98500.81;4929283;29;20235;-64
2023/05/20 11:08:00;;;;;;;4.73;4.00;;;;;;;19.79;56.75;98507.94;4926701;29;20231;-64
2023/05/20 11:10:27;;;;;;;5.17;4.37;;;;;;;19.99;56.91;98507.88;4929026;29;20297;-64
2023/05/20 11:12:54;;;;;;;5.50;4.20;;;;;;;20.42;55.77;98507.09;4926735;29;20233;-65
2023/05/20 11:15:22;;;;;;;6.20;4.83;;;;;;;20.74;55.64;98514.13;4929508;29;20258;-65
2023/05/20 11:17:55;;;;;;;7.97;4.57;;;;;;;20.64;54.63;98498.72;4929006;29;20262;-65
2023/05/20 11:20:21;;;;;;;6.63;5.07;;;;;;;20.37;54.76;98503.47;4926775;29;20229;-65
2023/05/20 11:22:49;;;;;;;4.80;4.27;;;;;;;20.48;54.53;98498.25;4929401;29;20267;-64
2023/05/20 11:25:16;;;;;;;6.17;4.43;;;;;;;20.39;54.36;98507.53;4926750;29;20247;-64
2023/05/20 11:27:43;;;;;;;7.37;4.17;;;;;;;20.75;54.40;98500.66;4929651;29;20254;-64
2023/05/20 11:30:11;;;;;;;7.07;4.30;;;;;;;21.17;55.07;98501.84;4926621;29;20243;-64
2023/05/20 11:32:38;;;;;;;5.37;4.13;;;;;;;21.07;53.17;98492.56;4928490;29;20239;-65
2023/05/20 11:35:07;;;;;;;5.27;4.40;;;;;;;21.18;54.08;98496.31;4901741;28;20241;-65
2023/05/20 11:37:36;;;;;;;6.37;4.27;;;;;;;21.41;51.94;98486.00;4911824;29;20239;-65
2023/05/20 11:40:06;;;;;;;4.60;3.93;;;;;;;21.51;52.26;98494.25;4897865;28;20230;-65
2023/05/20 11:42:33;;;;;;;5.33;4.50;;;;;;;21.51;51.79;98495.06;4927914;29;20581;-65